createdAt,value
2022-08-23T00:00:13.306Z,25.00
2022-08-23T00:02:43.597Z,25.00
2022-08-23T00:05:12.801Z,25.00
2022-08-23T00:07:43.606Z,25.10
2022-08-23T00:10:15.604Z,25.10
2022-08-23T00:12:45.311Z,25.10
2022-08-23T00:15:16.751Z,25.00
2022-08-23T00:17:46.216Z,25.00
2022-08-23T00:20:20.230Z,25.00
2022-08-23T00:22:48.773Z,25.00
2022-08-23T00:25:17.107Z,25.00
2022-08-23T00:27:48.967Z,25.00
2022-08-23T00:30:19.108Z,25.00
2022-08-23T00:32:49.888Z,25.00
2022-08-23T00:35:27.030Z,25.00
2022-08-23T00:38:33.423Z,25.00
2022-08-23T00:40:51.013Z,25.00
2022-08-23T00:43:43.135Z,24.90
2022-08-23T00:46:39.649Z,24.80
2022-08-23T00:49:14.003Z,24.70
2022-08-23T00:51:52.276Z,24.60
2022-08-23T00:54:24.446Z,24.50
2022-08-23T00:56:54.520Z,24.50
2022-08-23T00:59:23.879Z,24.50
2022-08-23T01:01:52.604Z,24.50
2022-08-23T01:04:22.774Z,24.40
2022-08-23T01:06:58.303Z,24.40
2022-08-23T01:09:27.127Z,24.40
2022-08-23T01:12:04.531Z,24.40
2022-08-23T01:14:39.724Z,24.40
2022-08-23T01:17:13.740Z,24.40
2022-08-23T01:19:51.714Z,24.40
2022-08-23T01:22:28.335Z,24.40
2022-08-23T01:25:06.078Z,24.50
2022-08-23T01:27:39.803Z,24.50
2022-08-23T01:30:11.715Z,24.50
2022-08-23T01:32:45.548Z,24.60
2022-08-23T01:35:16.655Z,24.70
2022-08-23T01:37:46.339Z,24.70
2022-08-23T01:40:16.133Z,24.60
2022-08-23T01:42:45.318Z,24.60
2022-08-23T01:45:15.626Z,24.60
2022-08-23T01:47:43.854Z,24.60
2022-08-23T01:50:14.071Z,24.60
2022-08-23T01:52:46.983Z,24.60
2022-08-23T01:55:19.562Z,24.60
2022-08-23T01:57:54.379Z,24.60
2022-08-23T02:00:29.879Z,24.50
2022-08-23T02:02:59.381Z,24.50
2022-08-23T02:05:28.565Z,24.40
2022-08-23T02:07:57.220Z,24.40
2022-08-23T02:10:26.803Z,24.40
2022-08-23T02:12:56.521Z,24.30
2022-08-23T02:15:24.787Z,24.30
2022-08-23T02:17:55.110Z,24.30
2022-08-23T02:20:23.631Z,24.20
2022-08-23T02:22:51.876Z,24.20
2022-08-23T02:25:20.265Z,24.20
2022-08-23T02:27:49.763Z,24.10
2022-08-23T02:30:18.014Z,24.20
2022-08-23T02:32:46.229Z,24.20
2022-08-23T02:35:16.374Z,24.20
2022-08-23T02:37:44.628Z,24.20
2022-08-23T02:40:13.254Z,24.30
2022-08-23T02:42:41.854Z,24.30
2022-08-23T02:45:13.186Z,24.30
2022-08-23T02:47:46.820Z,24.30
2022-08-23T02:50:28.351Z,24.30
2022-08-23T02:52:58.403Z,24.30
2022-08-23T02:55:28.955Z,24.30
2022-08-23T02:57:57.169Z,24.20
2022-08-23T03:00:27.637Z,24.20
2022-08-23T03:02:56.179Z,24.20
2022-08-23T03:05:24.708Z,24.30
2022-08-23T03:07:52.897Z,24.30
2022-08-23T03:10:22.814Z,24.40
2022-08-23T03:12:57.086Z,24.40
2022-08-23T03:15:25.174Z,24.40
2022-08-23T03:17:54.869Z,24.40
2022-08-23T03:20:23.559Z,24.40
2022-08-23T03:22:54.656Z,24.40
2022-08-23T03:25:27.150Z,24.50
2022-08-23T03:28:05.777Z,24.40
2022-08-23T03:30:36.098Z,24.40
2022-08-23T03:33:07.027Z,24.40
2022-08-23T03:35:35.383Z,24.40
2022-08-23T03:38:05.134Z,24.40
2022-08-23T03:40:33.486Z,24.40
2022-08-23T03:43:02.461Z,24.30
2022-08-23T03:45:32.210Z,24.30
2022-08-23T03:48:01.415Z,24.30
2022-08-23T03:50:31.228Z,24.30
2022-08-23T03:52:59.525Z,24.30
2022-08-23T03:55:27.726Z,24.30
2022-08-23T03:57:58.177Z,24.40
2022-08-23T04:00:27.366Z,24.30
2022-08-23T04:02:56.178Z,24.30
2022-08-23T04:05:26.711Z,24.30
2022-08-23T04:08:02.518Z,24.20
2022-08-23T04:10:30.939Z,24.10
2022-08-23T04:12:59.306Z,24.20
2022-08-23T04:15:27.683Z,24.20
2022-08-23T04:17:55.902Z,24.30
2022-08-23T04:20:25.839Z,24.40
2022-08-23T04:23:03.043Z,24.50
2022-08-23T04:25:35.955Z,24.50
2022-08-23T04:28:06.483Z,24.60
2022-08-23T04:30:35.546Z,24.70
2022-08-23T04:33:09.979Z,24.80
2022-08-23T04:35:41.342Z,24.80
2022-08-23T04:38:18.271Z,24.80
2022-08-23T04:41:13.233Z,24.90
2022-08-23T04:43:43.939Z,24.90
2022-08-23T04:46:15.590Z,24.90
2022-08-23T04:48:47.266Z,24.90
2022-08-23T04:51:16.857Z,25.00
2022-08-23T04:53:46.693Z,24.90
2022-08-23T04:56:40.483Z,24.90
2022-08-23T04:59:13.097Z,24.90
2022-08-23T05:01:42.869Z,24.80
2022-08-23T05:04:11.772Z,24.80
2022-08-23T05:06:41.480Z,24.80
2022-08-23T05:09:11.013Z,24.80
2022-08-23T05:11:39.374Z,24.80
2022-08-23T05:14:08.207Z,24.80
2022-08-23T05:16:36.565Z,24.80
2022-08-23T05:19:10.387Z,24.80
2022-08-23T05:21:44.480Z,24.80
2022-08-23T05:24:14.556Z,24.80
2022-08-23T05:26:44.644Z,24.80
2022-08-23T05:29:13.161Z,24.80
2022-08-23T05:31:50.006Z,24.80
2022-08-23T05:34:22.370Z,24.90
2022-08-23T05:36:56.200Z,24.90
2022-08-23T05:39:36.691Z,24.80
2022-08-23T05:42:08.365Z,24.80
2022-08-23T05:44:37.266Z,24.80
2022-08-23T05:47:10.810Z,24.70
2022-08-23T05:49:46.207Z,24.70
2022-08-23T05:52:15.529Z,24.70
2022-08-23T05:54:46.743Z,24.80
2022-08-23T05:57:36.602Z,24.80
2022-08-23T06:00:08.818Z,24.90
2022-08-23T06:02:47.133Z,24.90
2022-08-23T06:05:16.180Z,24.90
2022-08-23T06:07:46.388Z,25.00
2022-08-23T06:10:16.553Z,25.00
2022-08-23T06:12:50.754Z,25.00
2022-08-23T06:15:19.181Z,25.00
2022-08-23T06:17:48.334Z,24.90
2022-08-23T06:20:17.180Z,25.00
2022-08-23T06:23:03.406Z,25.00
2022-08-23T06:25:36.874Z,25.00
2022-08-23T06:28:11.475Z,25.00
2022-08-23T06:30:40.895Z,25.00
2022-08-23T06:33:20.621Z,25.00
2022-08-23T06:35:49.122Z,24.90
2022-08-23T06:38:37.356Z,24.90
2022-08-23T06:41:14.691Z,25.00
2022-08-23T06:43:51.807Z,25.00
2022-08-23T06:46:56.410Z,25.00
2022-08-23T06:49:27.618Z,24.90
2022-08-23T06:51:59.952Z,24.90
2022-08-23T06:54:39.244Z,24.90
2022-08-23T06:57:42.678Z,24.90
2022-08-23T07:00:29.359Z,24.90
2022-08-23T07:03:13.539Z,24.90
2022-08-23T07:06:00.152Z,24.90
2022-08-23T07:08:30.902Z,24.90
2022-08-23T07:11:00.021Z,25.00
2022-08-23T07:13:29.628Z,24.90
2022-08-23T07:16:03.097Z,24.90
2022-08-23T07:18:33.604Z,24.90
2022-08-23T07:21:05.156Z,24.90
2022-08-23T07:23:36.394Z,24.90
2022-08-23T07:26:11.449Z,24.90
2022-08-23T07:28:43.774Z,24.90
2022-08-23T07:31:16.288Z,24.90
2022-08-23T07:33:47.782Z,24.80
2022-08-23T07:36:22.932Z,24.90
2022-08-23T07:38:51.913Z,24.90
2022-08-23T07:41:24.058Z,24.90
2022-08-23T07:43:54.965Z,24.90
2022-08-23T07:46:23.199Z,25.00
2022-08-23T07:48:54.850Z,25.00
2022-08-23T07:51:35.087Z,25.00
2022-08-23T07:54:04.945Z,25.00
2022-08-23T07:56:35.479Z,25.00
2022-08-23T07:59:11.512Z,25.00
2022-08-23T08:01:44.768Z,25.00
2022-08-23T08:04:13.754Z,25.00
2022-08-23T08:06:59.916Z,25.00
2022-08-23T08:09:34.870Z,25.00
2022-08-23T08:12:03.055Z,25.00
2022-08-23T08:14:35.945Z,25.00
2022-08-23T08:17:06.921Z,25.00
2022-08-23T08:19:53.817Z,25.00
2022-08-23T08:22:58.469Z,25.00
2022-08-23T08:25:36.034Z,25.00
2022-08-23T08:28:09.435Z,25.00
2022-08-23T08:30:42.520Z,25.00
2022-08-23T08:33:11.112Z,25.00
2022-08-23T08:35:40.064Z,25.00
2022-08-23T08:38:09.088Z,25.00
2022-08-23T08:40:41.307Z,25.00
2022-08-23T08:43:27.748Z,25.00
2022-08-23T08:46:07.843Z,25.00
2022-08-23T08:48:44.782Z,25.00
2022-08-23T08:51:32.968Z,25.00
2022-08-23T08:54:04.654Z,25.00
2022-08-23T08:56:43.250Z,25.00
2022-08-23T08:59:23.570Z,25.00
2022-08-23T09:01:53.777Z,25.00
2022-08-23T09:04:29.986Z,25.00
2022-08-23T09:07:10.452Z,25.00
2022-08-23T09:10:17.636Z,25.00
2022-08-23T09:13:18.049Z,25.00
2022-08-23T09:15:59.430Z,25.00
2022-08-23T09:18:36.320Z,25.00
2022-08-23T09:21:09.726Z,25.00
2022-08-23T09:23:43.647Z,25.00
2022-08-23T09:26:24.169Z,25.10
2022-08-23T09:28:55.464Z,25.10
2022-08-23T09:31:43.171Z,25.00
2022-08-23T09:34:19.976Z,25.10
2022-08-23T09:37:13.283Z,25.00
2022-08-23T09:39:44.672Z,25.00
2022-08-23T09:42:32.337Z,25.10
2022-08-23T09:45:01.974Z,25.00
2022-08-23T09:47:44.491Z,25.00
2022-08-23T09:50:27.794Z,25.00
2022-08-23T09:53:03.948Z,25.00
2022-08-23T09:55:36.823Z,25.00
2022-08-23T09:58:08.303Z,25.00
2022-08-23T10:00:38.471Z,25.00
2022-08-23T10:03:27.137Z,25.00
2022-08-23T10:06:05.199Z,25.00
2022-08-23T10:08:43.119Z,25.00
2022-08-23T10:11:18.826Z,25.00
2022-08-23T10:13:48.487Z,25.10
2022-08-23T10:16:30.563Z,25.00
2022-08-23T10:19:15.487Z,25.10
2022-08-23T10:21:58.684Z,25.10
2022-08-23T10:24:42.143Z,25.00
2022-08-23T10:27:49.109Z,25.00
2022-08-23T10:30:23.523Z,25.00
2022-08-23T10:33:07.857Z,25.00
2022-08-23T10:35:52.672Z,25.10
2022-08-23T10:38:42.268Z,25.10
2022-08-23T10:41:41.232Z,25.10
2022-08-23T10:44:25.904Z,25.10
2022-08-23T10:47:11.391Z,25.20
2022-08-23T10:49:43.124Z,25.20
2022-08-23T10:52:20.559Z,25.20
2022-08-23T10:55:05.761Z,25.20
2022-08-23T10:57:41.268Z,25.20
2022-08-23T11:00:17.240Z,25.20
2022-08-23T11:02:56.870Z,25.20
2022-08-23T11:05:32.703Z,25.20
2022-08-23T11:08:10.850Z,25.20
2022-08-23T11:10:56.221Z,25.20
2022-08-23T11:13:33.448Z,25.20
2022-08-23T11:16:07.055Z,25.20
2022-08-23T11:18:46.461Z,25.20
2022-08-23T11:21:48.295Z,25.30
2022-08-23T11:24:56.790Z,25.30
2022-08-23T11:27:39.024Z,25.20
2022-08-23T11:30:46.934Z,25.20
2022-08-23T11:33:24.484Z,25.20
2022-08-23T11:36:16.489Z,25.30
2022-08-23T11:39:12.497Z,25.20
2022-08-23T11:42:04.572Z,25.30
2022-08-23T11:44:43.138Z,25.20
2022-08-23T11:47:14.229Z,25.30
2022-08-23T11:50:15.155Z,25.30
2022-08-23T11:53:11.156Z,25.30
2022-08-23T11:56:22.363Z,25.30
2022-08-23T11:59:18.356Z,25.30
2022-08-23T12:01:48.272Z,25.20
2022-08-23T12:04:34.295Z,25.20
2022-08-23T12:07:07.174Z,25.20
2022-08-23T12:09:57.360Z,25.30
2022-08-23T12:12:39.265Z,25.30
2022-08-23T12:15:13.182Z,25.30
2022-08-23T12:18:17.397Z,25.20
2022-08-23T12:20:49.930Z,25.30
2022-08-23T12:23:21.969Z,25.30
2022-08-23T12:26:03.299Z,25.30
2022-08-23T12:28:42.269Z,25.30
2022-08-23T12:31:21.848Z,25.30
2022-08-23T12:34:15.338Z,25.30
2022-08-23T12:36:56.874Z,25.30
2022-08-23T12:39:32.557Z,25.30
2022-08-23T12:42:10.604Z,25.30
2022-08-23T12:44:38.944Z,25.30
2022-08-23T12:47:14.588Z,25.30
2022-08-23T12:49:54.655Z,25.30
2022-08-23T12:52:27.843Z,25.30
2022-08-23T12:54:58.002Z,25.30
2022-08-23T12:57:36.947Z,25.30
2022-08-23T13:00:18.788Z,25.30
2022-08-23T13:02:56.389Z,25.30
2022-08-23T13:05:36.529Z,25.30
2022-08-23T13:08:10.646Z,25.30
2022-08-23T13:10:43.755Z,25.30
2022-08-23T13:13:15.523Z,25.30
2022-08-23T13:15:52.991Z,25.30
2022-08-23T13:18:41.312Z,25.30
2022-08-23T13:21:31.962Z,25.30
2022-08-23T13:24:37.759Z,25.30
2022-08-23T13:27:22.498Z,25.30
2022-08-23T13:29:57.446Z,25.30
2022-08-23T13:32:30.876Z,25.30
2022-08-23T13:35:30.265Z,25.30
2022-08-23T13:38:09.094Z,25.30
2022-08-23T13:40:44.442Z,25.30
2022-08-23T13:43:21.221Z,25.30
2022-08-23T13:45:52.679Z,25.30
2022-08-23T13:48:24.010Z,25.30
2022-08-23T13:50:52.721Z,25.40
2022-08-23T13:53:22.875Z,25.40
2022-08-23T13:55:56.512Z,25.40
2022-08-23T13:58:30.787Z,25.40
2022-08-23T14:01:00.627Z,25.40
2022-08-23T14:03:31.341Z,25.40
2022-08-23T14:05:59.623Z,25.40
2022-08-23T14:08:29.159Z,25.40
2022-08-23T14:10:57.327Z,25.40
2022-08-23T14:13:29.731Z,25.40
2022-08-23T14:21:42.229Z,25.30
2022-08-23T14:24:11.747Z,25.30
2022-08-23T14:26:51.678Z,25.30
2022-08-23T14:29:22.268Z,25.30
2022-08-23T14:31:51.811Z,25.30
2022-08-23T14:34:20.435Z,25.30
2022-08-23T14:39:38.708Z,25.30
2022-08-23T14:42:08.535Z,25.30
2022-08-23T14:44:36.758Z,25.30
2022-08-23T14:47:06.476Z,25.40
2022-08-23T14:49:35.814Z,25.50
2022-08-23T14:52:04.870Z,25.50
2022-08-23T14:54:34.478Z,25.60
2022-08-23T14:57:04.056Z,25.60
2022-08-23T14:59:32.210Z,25.60
2022-08-23T15:02:00.861Z,25.60
2022-08-23T15:04:34.499Z,25.60
2022-08-23T15:07:17.831Z,25.60
2022-08-23T15:09:46.934Z,25.60
2022-08-23T15:15:09.439Z,25.60
2022-08-23T15:17:48.107Z,25.60
2022-08-23T15:20:16.509Z,25.70
2022-08-23T15:22:44.972Z,25.70
2022-08-23T15:25:18.090Z,25.60
2022-08-23T15:27:48.574Z,25.70
2022-08-23T15:30:17.748Z,25.70
2022-08-23T15:32:50.216Z,25.70
2022-08-23T15:35:21.536Z,25.70
2022-08-23T15:37:50.588Z,25.80
2022-08-23T15:40:19.209Z,25.80
2022-08-23T15:42:49.074Z,25.80
2022-08-23T15:45:18.738Z,25.80
2022-08-23T15:47:51.781Z,25.80
2022-08-23T15:50:26.446Z,25.80
2022-08-23T15:52:55.843Z,25.90
2022-08-23T15:55:25.730Z,25.90
2022-08-23T15:57:58.136Z,25.90
2022-08-23T16:00:27.667Z,25.90
2022-08-23T16:03:20.415Z,25.70
2022-08-23T16:05:57.412Z,25.70
2022-08-23T16:08:28.574Z,25.70
2022-08-23T16:10:58.142Z,25.80
2022-08-23T16:13:28.875Z,25.90
2022-08-23T16:15:57.993Z,26.00
2022-08-23T16:18:26.424Z,26.00
2022-08-23T16:20:54.694Z,26.10
2022-08-23T16:23:23.404Z,26.10
2022-08-23T16:25:51.684Z,26.00
2022-08-23T16:28:19.910Z,26.00
2022-08-23T16:30:49.547Z,26.00
2022-08-23T16:33:17.759Z,26.00
2022-08-23T16:35:45.993Z,26.00
2022-08-23T16:38:14.215Z,26.00
2022-08-23T16:40:42.339Z,26.00
2022-08-23T16:43:10.567Z,26.00
2022-08-23T16:45:38.698Z,26.10
2022-08-23T16:48:10.681Z,26.10
2022-08-23T16:50:42.900Z,26.10
2022-08-23T16:53:11.424Z,26.10
2022-08-23T16:55:40.953Z,26.10
2022-08-23T16:58:09.239Z,26.10
2022-08-23T17:00:38.577Z,26.10
2022-08-23T17:03:08.357Z,26.10
2022-08-23T17:05:37.380Z,26.00
2022-08-23T17:08:05.878Z,26.00
2022-08-23T17:10:34.726Z,26.00
2022-08-23T17:13:03.862Z,26.00
2022-08-23T17:15:35.553Z,26.00
2022-08-23T17:18:04.346Z,26.00
2022-08-23T17:20:37.920Z,26.00
2022-08-23T17:23:06.876Z,26.00
2022-08-23T17:25:36.581Z,26.00
2022-08-23T17:28:06.688Z,26.00
2022-08-23T17:30:35.520Z,26.00
2022-08-23T17:33:04.318Z,25.90
2022-08-23T17:35:34.753Z,25.90
2022-08-23T17:38:05.601Z,25.90
2022-08-23T17:40:37.555Z,25.90
2022-08-23T17:43:06.440Z,26.00
2022-08-23T17:45:42.080Z,25.90
2022-08-23T17:48:10.862Z,25.90
2022-08-23T17:50:41.543Z,25.90
2022-08-23T17:53:10.696Z,25.90
2022-08-23T17:55:40.793Z,25.90
2022-08-23T17:58:10.401Z,25.90
2022-08-23T18:00:40.461Z,25.90
2022-08-23T18:03:08.740Z,25.90
2022-08-23T18:05:42.841Z,25.90
2022-08-23T18:08:11.346Z,25.90
2022-08-23T18:10:43.360Z,25.90
2022-08-23T18:13:13.778Z,25.90
2022-08-23T18:15:41.988Z,25.90
2022-08-23T18:18:10.507Z,25.90
2022-08-23T18:20:40.035Z,25.90
2022-08-23T18:23:08.249Z,25.90
2022-08-23T18:25:37.088Z,25.90
2022-08-23T18:28:08.489Z,25.80
2022-08-23T18:30:46.859Z,25.80
2022-08-23T18:33:15.887Z,25.80
2022-08-23T18:35:48.981Z,25.80
2022-08-23T18:38:18.150Z,25.80
2022-08-23T18:40:49.912Z,25.80
2022-08-23T18:43:22.034Z,25.80
2022-08-23T18:45:54.509Z,25.80
2022-08-23T18:48:24.189Z,25.80
2022-08-23T18:50:53.906Z,25.80
2022-08-23T18:53:22.385Z,25.70
2022-08-23T18:55:51.101Z,25.80
2022-08-23T18:58:21.033Z,25.70
2022-08-23T19:00:51.710Z,25.70
2022-08-23T19:03:20.442Z,25.80
2022-08-23T19:05:49.214Z,25.70
2022-08-23T19:08:19.348Z,25.70
2022-08-23T19:10:48.285Z,25.70
2022-08-23T19:13:16.721Z,25.70
2022-08-23T19:15:44.997Z,25.70
2022-08-23T19:18:14.598Z,25.70
2022-08-23T19:20:43.476Z,25.70
2022-08-23T19:23:11.692Z,25.70
2022-08-23T19:25:45.294Z,25.70
2022-08-23T19:28:14.635Z,25.70
2022-08-23T19:30:44.419Z,25.70
2022-08-23T19:33:13.114Z,25.70
2022-08-23T19:35:42.524Z,25.70
2022-08-23T19:38:12.050Z,25.70
2022-08-23T19:40:42.390Z,25.80
2022-08-23T19:43:11.223Z,25.90
2022-08-23T19:45:39.827Z,25.90
2022-08-23T19:48:08.144Z,26.00
2022-08-23T19:50:37.000Z,26.00
2022-08-23T19:53:05.489Z,26.00
2022-08-23T19:55:35.369Z,26.00
2022-08-23T19:58:07.399Z,26.00
2022-08-23T20:00:36.415Z,26.00
2022-08-23T20:03:05.518Z,26.00
2022-08-23T20:05:34.979Z,26.00
2022-08-23T20:08:04.246Z,26.00
2022-08-23T20:10:32.424Z,26.00
2022-08-23T20:13:01.017Z,26.00
2022-08-23T20:15:30.906Z,26.00
2022-08-23T20:17:59.702Z,26.00
2022-08-23T20:20:28.001Z,26.00
2022-08-23T20:23:13.973Z,25.90
2022-08-23T20:25:42.956Z,26.00
2022-08-23T20:28:11.722Z,25.90
2022-08-23T20:30:41.782Z,25.90
2022-08-23T20:33:10.329Z,25.90
2022-08-23T20:35:38.618Z,25.90
2022-08-23T20:38:06.990Z,25.90
2022-08-23T20:40:35.238Z,25.80
2022-08-23T20:43:03.916Z,25.80
2022-08-23T20:45:33.260Z,25.80
2022-08-23T20:48:02.884Z,25.80
2022-08-23T20:50:31.307Z,25.80
2022-08-23T20:52:59.597Z,25.90
2022-08-23T20:55:28.209Z,25.90
2022-08-23T20:57:57.329Z,25.90
2022-08-23T21:00:25.651Z,25.90
2022-08-23T21:02:54.068Z,25.90
2022-08-23T21:05:23.778Z,25.90
2022-08-23T21:07:52.404Z,25.90
2022-08-23T21:10:21.369Z,25.90
2022-08-23T21:12:49.711Z,25.90
2022-08-23T21:15:18.144Z,25.90
2022-08-23T21:17:46.760Z,26.00
2022-08-23T21:20:16.621Z,26.00
2022-08-23T21:22:46.291Z,25.90
2022-08-23T21:25:15.016Z,26.00
2022-08-23T21:27:43.684Z,25.90
2022-08-23T21:30:13.254Z,26.00
2022-08-23T21:32:41.638Z,26.00
2022-08-23T21:35:11.747Z,25.90
2022-08-23T21:37:40.271Z,25.90
2022-08-23T21:40:12.204Z,25.90
2022-08-23T21:42:40.635Z,25.90
2022-08-23T21:45:10.425Z,25.90
2022-08-23T21:47:39.644Z,25.90
2022-08-23T21:50:08.846Z,25.90
2022-08-23T21:52:37.717Z,25.90
2022-08-23T21:55:07.972Z,25.90
2022-08-23T21:57:37.832Z,25.90
2022-08-23T22:00:10.986Z,25.90
2022-08-23T22:02:41.366Z,25.80
2022-08-23T22:05:10.861Z,25.70
2022-08-23T22:07:40.172Z,25.70
2022-08-23T22:10:11.245Z,25.60
2022-08-23T22:12:41.897Z,25.60
2022-08-23T22:15:12.124Z,25.60
2022-08-23T22:17:40.726Z,25.60
2022-08-23T22:20:13.449Z,25.60
2022-08-23T22:22:43.482Z,25.50
2022-08-23T22:25:13.531Z,25.50
2022-08-23T22:27:43.185Z,25.50
2022-08-23T22:30:13.255Z,25.40
2022-08-23T22:32:41.964Z,25.40
2022-08-23T22:35:11.660Z,25.40
2022-08-23T22:37:53.675Z,25.40
2022-08-23T22:40:29.246Z,25.40
2022-08-23T22:42:58.877Z,25.50
2022-08-23T22:45:27.125Z,25.50
2022-08-23T22:47:55.362Z,25.50
2022-08-23T22:50:23.772Z,25.50
2022-08-23T22:52:52.551Z,25.40
2022-08-23T22:55:21.523Z,25.50
2022-08-23T22:57:49.712Z,25.40
2022-08-23T23:00:19.499Z,25.40
2022-08-23T23:02:47.764Z,25.40
2022-08-23T23:05:16.140Z,25.30
2022-08-23T23:08:02.061Z,25.30
2022-08-23T23:10:30.810Z,25.40
2022-08-23T23:12:59.063Z,25.40
2022-08-23T23:15:28.732Z,25.30
2022-08-23T23:17:57.087Z,25.30
2022-08-23T23:20:40.835Z,25.30
2022-08-23T23:23:12.555Z,25.30
2022-08-23T23:25:41.984Z,25.30
2022-08-23T23:28:10.972Z,25.30
2022-08-23T23:30:42.051Z,25.30
2022-08-23T23:33:10.595Z,25.30
2022-08-23T23:35:39.609Z,25.20
2022-08-23T23:38:08.998Z,25.30
2022-08-23T23:40:38.619Z,25.30
2022-08-23T23:43:07.241Z,25.30
2022-08-23T23:45:41.386Z,25.30
2022-08-23T23:48:10.256Z,25.30
2022-08-23T23:50:45.561Z,25.20
2022-08-23T23:53:16.054Z,25.30
2022-08-23T23:55:44.810Z,25.20
2022-08-23T23:58:13.126Z,25.20
